Detall de PIREP

Printer-friendly versionPDF version

[2012/03/12 09:19:00]
Flight IATA:CT3208
Pilot Number:011
Company ICAO:CAT
Aircraft Type:F28/A
PAX:85
Departing Airport: LEPA
Destination Airport: EBBR
Alternate Airport:EHRD
Online: VATSIM
Route:GALAT UN861 FISTO UY156 ADABI UN858 VADOM UN874 BAMES UT191 PODEM UN873 VEKIN UZ173 ARVOL
Flight Level:F300
No Slew and time accel
No pause
Crash detect
Detect pilot in Cockpit between each 30 and 45 minutes
09:19 Zero fuel Weight: 58956 Lbs, Fuel Weight: 13913 Lbs
09:19 VATSIM:LEPA 120900Z 00000KT CAVOK 14/05 Q1026 BECMG 22010KT
09:19 VATSIM:EBBR 120850Z 29004KT 3000 BR SCT002 BKN004 07/06 Q1034 NOSIG
09:23 Parking Brakes off
09:38 Take-off
09:38 Take off Weight: 72145 Lbs
09:38 Wind: 010º @ 000 Knots Heading: 238º
09:38 POS N39º 32´ 54´´ E002º 44´ 49´´
09:38 Gear Up: 151 Knots
09:38 Flaps:3 at 152 Knots
09:41 Flaps:2 at 172 Knots
09:41 Flaps:1 at 191 Knots
09:41 Flaps:0 at 206 Knots
09:53 Wind:344º@015 Knots Heading: 349º Ground Speed: 357 Knots Altitude 28595 ft
09:55 TOC
09:55 Fuel Weight: 11121 Lb
09:58 TOD
09:58 Fuel Weight: 10871 Lb
09:58 TOC
09:58 Fuel Weight: 10853 Lb
10:08 Wind:333º@025 Knots Heading: 350º Ground Speed: 423 Knots Altitude 30357 ft
10:23 Wind:329º@012 Knots Heading: 352º Ground Speed: 427 Knots Altitude 30410 ft
10:38 Wind:052º@048 Knots Heading: 336º Ground Speed: 437 Knots Altitude 30426 ft
10:53 Wind:056º@045 Knots Heading: 010º Ground Speed: 410 Knots Altitude 30551 ft
11:08 Wind:023º@023 Knots Heading: 031º Ground Speed: 421 Knots Altitude 30606 ft
11:18 TOD
11:18 Fuel Weight: 4572 Lb
11:23 Wind:332º@016 Knots Heading: 036º Ground Speed: 414 Knots Altitude 25872 ft
11:38 Wind:296º@006 Knots Heading: 063º Ground Speed: 254 Knots Altitude 6640 ft
11:43 Flaps:1 at 222 Knots
11:43 Flaps:2 at 221Knots
11:44 Flaps:3 at 203 Knots
11:44 Flaps:4 at 175 Knots
11:44 Gear Down: 173 Knots
11:45 Flaps:5 at 158 Knots
11:50 TouchDown:Rate -189 ft/min Speed: 104 Knots
11:50 VATSIM:EBBR 121120Z VRB02KT CAVOK 11/06 Q1034 NOSIG
11:50 Land
11:50 Wind:293º@004 Knots
11:50 Heading: 251º
11:50 Flight Duration: 02:12
11:50 Landing Weight: 62053 Lbs
11:50 POS N50º 53´ 45´´ E004º 30´ 38´´
11:53 Parking brakes on
11:53 Block to Block Duration: 02:30
11:53 Final Fuel: 2962 Lbls
11:53 Spent Fuel: 10950 Lbls
11:53 Flight Length: 329 NM
11:53 TOD Land Length: 50 NM

Exportar CSV

Powered by Drupal - Modified by Danger4k